Time;durP1;ratioP1;P1;durP2;ratioP2;P2;SDS_P1;SDS_P2;PMS_P1;PMS_P2;Temp;Humidity;BMP_temperature;BMP_pressure;BME280_temperature;BME280_humidity;BME280_pressure;Samples;Min_cycle;Max_cycle;Signal;HPM_P1;HPM_P2
2023/10/08 00:00:39;;;;;;;10.25;4.55;;;;;;;18.49;100.00;102185.53;5233530;28;20014;-77
2023/10/08 00:02:53;;;;;;;13.13;5.60;;;;;;;18.46;100.00;102181.31;5227611;28;20044;-78
2023/10/08 00:05:24;;;;;;;16.23;4.47;;;;;;;18.50;100.00;102189.91;5233237;28;20692;-78
2023/10/08 00:07:56;;;;;;;12.80;5.43;;;;;;;18.36;100.00;102199.66;5233530;28;20025;-78
2023/10/08 00:10:27;;;;;;;11.77;5.23;;;;;;;18.36;100.00;102189.06;5232221;28;20388;-78
2023/10/08 00:12:58;;;;;;;11.20;4.73;;;;;;;18.46;100.00;102193.72;5233178;28;20030;-78
2023/10/08 00:15:32;;;;;;;9.57;4.60;;;;;;;18.35;100.00;102187.38;5233790;28;20079;-78
2023/10/08 00:18:04;;;;;;;10.60;5.07;;;;;;;18.38;100.00;102200.41;5232823;28;20013;-78
2023/10/08 00:20:46;;;;;;;10.07;4.63;;;;;;;18.27;100.00;102208.31;5215672;28;20053;-78
2023/10/08 00:23:17;;;;;;;15.07;4.80;;;;;;;18.30;100.00;102212.53;5232874;28;20430;-78
2023/10/08 00:25:50;;;;;;;12.10;5.23;;;;;;;18.17;100.00;102208.09;5232161;28;20116;-78
2023/10/08 00:28:22;;;;;;;11.50;5.00;;;;;;;18.27;100.00;102218.91;5232654;28;20353;-78
2023/10/08 00:30:55;;;;;;;12.47;5.00;;;;;;;18.11;100.00;102209.38;5232703;28;20025;-78
2023/10/08 00:33:26;;;;;;;9.70;4.00;;;;;;;18.15;100.00;102207.38;5233600;28;20021;-78
2023/10/08 00:35:57;;;;;;;13.87;5.63;;;;;;;18.11;100.00;102219.97;5232679;28;20029;-78
2023/10/08 00:38:32;;;;;;;13.70;4.90;;;;;;;17.81;100.00;102201.75;5232554;28;20024;-78
2023/10/08 00:41:04;;;;;;;12.23;4.80;;;;;;;17.90;100.00;102201.97;5231664;28;20128;-78
2023/10/08 00:43:36;;;;;;;14.20;5.43;;;;;;;18.05;100.00;102209.78;5233409;28;20084;-78
2023/10/08 00:50:02;;;;;;;11.13;4.40;;;;;;;18.02;100.00;102231.22;5214529;28;20041;-78
2023/10/08 00:52:26;;;;;;;12.32;4.63;;;;;;;17.93;100.00;102210.63;5218581;28;20461;-78
2023/10/08 00:57:37;;;;;;;10.60;4.90;;;;;;;17.77;100.00;102232.91;5233293;28;20048;-78
2023/10/08 01:00:21;;;;;;;10.23;5.20;;;;;;;17.75;100.00;102234.84;5210105;28;20381;-78
2023/10/08 01:03:00;;;;;;;10.40;4.67;;;;;;;17.62;100.00;102229.50;5199517;28;20047;-78
2023/10/08 01:05:46;;;;;;;9.63;5.10;;;;;;;17.77;100.00;102222.31;5213749;28;21000;-78
2023/10/08 01:08:47;;;;;;;12.33;4.73;;;;;;;17.48;100.00;102186.28;5231609;28;20067;-78
2023/10/08 01:11:25;;;;;;;12.33;4.83;;;;;;;17.86;100.00;102219.03;5230613;28;20129;-77
2023/10/08 01:13:58;;;;;;;13.03;5.53;;;;;;;17.61;100.00;102207.47;5232413;28;20013;-78
2023/10/08 01:16:34;;;;;;;10.20;4.97;;;;;;;17.51;100.00;102199.31;5232140;28;20029;-78
2023/10/08 01:19:12;;;;;;;13.83;4.80;;;;;;;17.56;100.00;102193.69;5232030;28;20036;-78
2023/10/08 01:21:44;;;;;;;11.67;5.57;;;;;;;17.41;100.00;102199.09;5231893;28;20108;-78
2023/10/08 01:24:17;;;;;;;13.27;5.60;;;;;;;17.55;100.00;102221.13;5232485;28;20039;-78
2023/10/08 01:26:48;;;;;;;11.83;6.03;;;;;;;17.52;100.00;102208.09;5213716;28;20029;-78
2023/10/08 01:29:20;;;;;;;14.73;5.57;;;;;;;17.47;100.00;102215.50;5214724;28;20124;-77
2023/10/08 01:31:53;;;;;;;16.73;6.03;;;;;;;17.36;100.00;102197.69;5232343;28;20029;-78
2023/10/08 01:34:30;;;;;;;9.73;4.73;;;;;;;17.41;100.00;102179.69;5231426;28;20025;-78
2023/10/08 01:37:08;;;;;;;10.13;5.43;;;;;;;17.34;100.00;102200.44;5214024;28;20071;-78
2023/10/08 01:39:42;;;;;;;10.70;5.50;;;;;;;17.07;100.00;102174.84;5231091;28;20074;-78
2023/10/08 01:42:17;;;;;;;9.60;5.70;;;;;;;17.24;100.00;102194.09;5231926;28;20503;-78
2023/10/08 01:44:50;;;;;;;13.33;5.50;;;;;;;17.22;100.00;102180.94;5231632;28;20396;-78
2023/10/08 01:47:25;;;;;;;11.90;5.10;;;;;;;16.92;100.00;102152.88;5231495;28;20021;-78
2023/10/08 01:50:05;;;;;;;11.87;4.80;;;;;;;16.90;100.00;102182.09;5213886;28;20045;-78
2023/10/08 01:52:36;;;;;;;10.17;5.20;;;;;;;16.99;100.00;102163.91;5226640;28;20018;-78
2023/10/08 01:55:11;;;;;;;12.90;5.53;;;;;;;17.10;100.00;102185.28;5204317;28;20032;-78
2023/10/08 01:57:43;;;;;;;11.67;5.67;;;;;;;17.14;100.00;102205.28;5214187;28;20029;-78
2023/10/08 02:00:26;;;;;;;10.07;5.03;;;;;;;17.15;100.00;102214.06;5231031;28;20029;-78
2023/10/08 02:02:59;;;;;;;10.40;5.80;;;;;;;16.91;100.00;102199.66;5217745;28;20107;-78
2023/10/08 02:05:30;;;;;;;12.10;5.40;;;;;;;16.92;100.00;102206.66;5231381;28;20048;-78
2023/10/08 02:08:03;;;;;;;12.43;5.43;;;;;;;17.05;100.00;102224.41;5231412;28;20601;-78
2023/10/08 02:10:35;;;;;;;12.07;5.57;;;;;;;16.93;100.00;102224.22;5230444;28;20045;-78
2023/10/08 02:13:08;;;;;;;10.60;5.50;;;;;;;17.03;100.00;102223.63;5231340;28;20441;-78
2023/10/08 02:15:53;;;;;;;10.87;5.23;;;;;;;17.11;100.00;102212.56;5214354;28;20033;-78
2023/10/08 02:18:25;;;;;;;13.57;5.43;;;;;;;17.03;100.00;102205.13;5214697;28;20021;-79
2023/10/08 02:20:58;;;;;;;10.60;5.57;;;;;;;16.90;100.00;102174.16;5231983;28;20096;-79
2023/10/08 02:23:29;;;;;;;8.90;4.90;;;;;;;17.00;100.00;102214.09;5236596;28;20030;-79
2023/10/08 02:26:01;;;;;;;12.50;4.80;;;;;;;16.91;100.00;102210.25;5240003;28;20040;-78
2023/10/08 02:28:33;;;;;;;11.43;5.00;;;;;;;17.02;100.00;102213.97;5239323;28;20099;-78
2023/10/08 02:31:05;;;;;;;17.70;6.03;;;;;;;16.91;100.00;102202.31;5223591;28;20025;-79
2023/10/08 02:33:36;;;;;;;12.23;6.20;;;;;;;16.86;100.00;102199.13;5235572;28;20032;-79
2023/10/08 02:36:09;;;;;;;11.63;5.70;;;;;;;17.03;100.00;102219.22;5232904;28;20087;-78
2023/10/08 02:38:41;;;;;;;15.10;5.72;;;;;;;17.04;100.00;102222.69;5207590;28;20030;-78
2023/10/08 02:41:18;;;;;;;9.67;5.57;;;;;;;17.11;100.00;102229.31;5221903;28;20029;-79
2023/10/08 02:43:50;;;;;;;11.10;5.43;;;;;;;16.97;100.00;102221.38;5231144;28;20421;-79
2023/10/08 02:46:24;;;;;;;17.30;7.60;;;;;;;16.73;100.00;102224.69;5230492;28;20037;-79
2023/10/08 02:48:56;;;;;;;9.85;5.22;;;;;;;16.93;100.00;102240.09;5230912;28;20569;-79
2023/10/08 02:51:27;;;;;;;13.23;5.10;;;;;;;17.02;100.00;102253.69;5230448;28;20097;-79
2023/10/08 02:53:58;;;;;;;12.10;5.83;;;;;;;16.81;100.00;102243.53;5230670;28;20096;-79
2023/10/08 02:56:32;;;;;;;10.90;5.43;;;;;;;16.91;100.00;102231.41;5229471;28;20131;-79
2023/10/08 02:59:03;;;;;;;9.97;4.97;;;;;;;16.97;100.00;102235.47;5230736;28;20021;-78
2023/10/08 03:01:35;;;;;;;10.10;5.07;;;;;;;16.62;100.00;102226.22;5213303;28;20751;-79
2023/10/08 03:04:19;;;;;;;10.53;5.13;;;;;;;16.61;100.00;102235.09;5230510;28;20400;-78
2023/10/08 03:06:52;;;;;;;10.95;6.15;;;;;;;16.84;100.00;102224.00;5230851;28;20412;-79
2023/10/08 03:09:23;;;;;;;13.63;5.03;;;;;;;16.93;100.00;102245.41;5229814;28;20048;-79
2023/10/08 03:11:55;;;;;;;14.10;6.40;;;;;;;16.89;100.00;102240.41;5230803;28;20049;-79
2023/10/08 03:14:26;;;;;;;11.03;4.43;;;;;;;16.69;100.00;102235.47;5233705;28;20103;-79
2023/10/08 03:17:07;;;;;;;11.37;5.33;;;;;;;16.93;100.00;102244.56;5217737;28;20029;-79
2023/10/08 03:19:38;;;;;;;13.70;5.50;;;;;;;16.90;100.00;102257.97;5234297;28;20064;-78
2023/10/08 03:22:19;;;;;;;9.53;5.00;;;;;;;16.58;100.00;102245.88;5234554;28;20036;-79
2023/10/08 03:24:51;;;;;;;10.27;5.60;;;;;;;16.75;100.00;102244.81;5233448;28;20033;-78
2023/10/08 03:27:26;;;;;;;11.90;5.23;;;;;;;16.88;100.00;102262.50;5234841;28;20109;-79
2023/10/08 03:29:58;;;;;;;14.93;6.40;;;;;;;16.77;100.00;102255.28;5234513;28;20424;-78
2023/10/08 03:32:35;;;;;;;17.00;5.67;;;;;;;16.81;100.00;102262.91;5216833;28;20040;-78
2023/10/08 03:35:10;;;;;;;15.80;6.60;;;;;;;16.84;100.00;102267.19;5234136;28;20108;-79
2023/10/08 03:37:45;;;;;;;12.10;5.90;;;;;;;16.79;100.00;102258.69;5234728;28;20048;-79
2023/10/08 03:40:42;;;;;;;12.90;6.40;;;;;;;16.68;100.00;102241.72;5232966;28;20037;-79
2023/10/08 03:43:23;;;;;;;14.60;5.00;;;;;;;16.65;100.00;102247.16;5233702;28;20680;-79
2023/10/08 03:45:59;;;;;;;14.73;5.63;;;;;;;16.76;100.00;102266.81;5212719;28;20026;-79
2023/10/08 03:48:36;;;;;;;10.53;4.80;;;;;;;16.71;100.00;102256.53;5232815;28;20034;-79
2023/10/08 03:51:11;;;;;;;11.43;5.37;;;;;;;16.77;100.00;102266.69;5234250;28;20025;-78
2023/10/08 03:53:58;;;;;;;10.40;5.23;;;;;;;16.71;100.00;102261.81;5234017;28;20025;-78
2023/10/08 03:56:31;;;;;;;13.20;5.67;;;;;;;16.64;100.00;102245.47;5233067;28;20068;-79
2023/10/08 03:59:12;;;;;;;14.30;5.40;;;;;;;16.75;100.00;102257.19;5215941;28;20033;-78
2023/10/08 04:01:43;;;;;;;15.83;6.13;;;;;;;16.62;100.00;102244.72;5234298;28;20052;-79
2023/10/08 04:04:15;;;;;;;10.77;5.33;;;;;;;16.73;100.00;102254.63;5233277;28;20120;-78
2023/10/08 04:06:51;;;;;;;12.57;6.00;;;;;;;16.67;100.00;102279.66;5234105;28;20033;-78
2023/10/08 04:09:25;;;;;;;10.87;5.87;;;;;;;16.41;100.00;102234.56;5214728;28;20112;-78
2023/10/08 04:12:03;;;;;;;11.77;5.45;;;;;;;16.63;100.00;102258.81;5233633;28;20127;-78
2023/10/08 04:14:35;;;;;;;14.00;6.13;;;;;;;16.63;100.00;102259.66;5229877;28;20150;-78
2023/10/08 04:17:08;;;;;;;10.47;5.53;;;;;;;16.60;100.00;102259.84;5233769;28;20112;-78
2023/10/08 04:19:40;;;;;;;9.52;5.80;;;;;;;16.51;100.00;102260.44;5233496;28;20018;-78
2023/10/08 04:22:15;;;;;;;13.00;6.53;;;;;;;16.54;100.00;102261.09;5233774;28;20029;-78
2023/10/08 04:24:47;;;;;;;13.00;5.67;;;;;;;16.52;100.00;102268.28;5231709;28;20471;-78
2023/10/08 04:27:21;;;;;;;11.67;5.80;;;;;;;16.53;100.00;102272.59;5233006;28;20029;-78
2023/10/08 04:29:53;;;;;;;10.83;5.10;;;;;;;16.52;100.00;102270.06;5233329;28;20562;-78
2023/10/08 04:32:24;;;;;;;12.53;5.87;;;;;;;16.59;100.00;102295.19;5232954;28;20013;-78
2023/10/08 04:34:57;;;;;;;14.83;5.47;;;;;;;16.59;100.00;102284.59;5216270;28;20021;-78
2023/10/08 04:37:32;;;;;;;14.63;5.73;;;;;;;16.48;100.00;102265.94;5232842;28;20033;-78
2023/10/08 04:40:05;;;;;;;12.53;5.37;;;;;;;16.35;100.00;102256.09;5214409;28;20021;-78
2023/10/08 04:42:37;;;;;;;13.10;5.70;;;;;;;16.38;100.00;102271.78;5232989;28;20029;-78
2023/10/08 04:45:13;;;;;;;13.57;6.23;;;;;;;16.41;100.00;102281.28;5233056;28;20025;-78
2023/10/08 04:47:44;;;;;;;11.83;5.40;;;;;;;16.24;100.00;102279.69;5233367;28;20091;-79
2023/10/08 04:50:18;;;;;;;13.67;5.87;;;;;;;16.41;100.00;102282.16;5232094;28;20021;-78
2023/10/08 04:52:58;;;;;;;16.20;6.30;;;;;;;16.04;100.00;102284.41;5233513;28;20018;-78
2023/10/08 04:55:29;;;;;;;10.67;5.57;;;;;;;16.33;100.00;102305.56;5232295;28;20052;-78
2023/10/08 04:58:12;;;;;;;13.60;5.60;;;;;;;16.20;100.00;102281.69;5232893;28;20033;-78
2023/10/08 05:00:53;;;;;;;11.23;6.17;;;;;;;16.17;100.00;102295.09;5232828;28;20017;-78
2023/10/08 05:03:32;;;;;;;12.03;6.40;;;;;;;15.94;100.00;102292.84;5232741;28;20647;-78
2023/10/08 05:08:58;;;;;;;11.10;5.78;;;;;;;15.71;100.00;102287.16;5232388;28;20033;-78
2023/10/08 05:17:09;;;;;;;15.03;6.37;;;;;;;15.91;100.00;102316.81;5232549;28;20080;-78
2023/10/08 05:22:18;;;;;;;11.47;5.43;;;;;;;15.80;100.00;102320.09;5232265;28;20476;-78
2023/10/08 05:25:24;;;;;;;13.70;5.93;;;;;;;15.91;100.00;102316.81;5231712;28;20025;-78
2023/10/08 05:30:28;;;;;;;11.37;5.90;;;;;;;15.99;100.00;102318.16;5232187;28;20063;-78
2023/10/08 05:33:06;;;;;;;12.03;6.13;;;;;;;15.64;100.00;102301.66;5232112;28;20631;-78
2023/10/08 05:38:22;;;;;;;14.77;5.37;;;;;;;15.71;100.00;102326.75;5231873;28;20044;-78
2023/10/08 06:00:29;;;;;;;13.77;5.97;;;;;;;15.96;100.00;102301.56;5231656;28;20485;-79
2023/10/08 06:05:27;;;;;;;13.97;6.53;;;;;;;15.88;100.00;102290.59;5230827;28;20025;-78
2023/10/08 06:08:11;;;;;;;13.03;7.10;;;;;;;15.95;100.00;102281.34;5230540;28;20072;-79
2023/10/08 06:10:43;;;;;;;15.13;6.97;;;;;;;15.99;100.00;102291.75;5230596;28;20041;-78
2023/10/08 06:13:43;;;;;;;14.07;5.67;;;;;;;15.77;100.00;102300.94;5231045;28;20013;-78
2023/10/08 06:16:30;;;;;;;16.30;6.40;;;;;;;15.91;100.00;102295.69;5231146;28;20021;-78
2023/10/08 06:19:02;;;;;;;17.43;6.07;;;;;;;15.87;100.00;102304.72;5231498;28;20067;-79
2023/10/08 06:21:33;;;;;;;20.07;6.97;;;;;;;16.06;100.00;102309.78;5230847;28;20117;-78
2023/10/08 06:24:09;;;;;;;10.13;5.30;;;;;;;15.97;100.00;102299.72;5230350;28;20120;-78
2023/10/08 06:26:45;;;;;;;13.53;6.63;;;;;;;15.81;100.00;102310.38;5230991;28;20091;-78
2023/10/08 06:29:18;;;;;;;15.13;6.53;;;;;;;15.73;100.00;102322.25;5231294;28;20056;-78
2023/10/08 06:31:55;;;;;;;15.85;6.90;;;;;;;15.68;100.00;102334.88;5231400;28;20048;-78
2023/10/08 06:34:27;;;;;;;15.73;6.30;;;;;;;15.67;100.00;102346.38;5231382;28;20025;-78
2023/10/08 06:37:01;;;;;;;11.27;6.53;;;;;;;15.86;100.00;102326.81;5230437;28;20104;-78
2023/10/08 06:39:47;;;;;;;14.73;6.25;;;;;;;15.90;100.00;102309.81;5230087;28;20131;-78
2023/10/08 06:42:20;;;;;;;14.10;6.53;;;;;;;15.94;100.00;102314.00;5212422;28;20109;-78
2023/10/08 06:44:53;;;;;;;11.30;6.67;;;;;;;15.90;100.00;102315.09;5230799;28;20037;-78
2023/10/08 06:47:24;;;;;;;14.80;6.33;;;;;;;15.99;100.00;102324.31;5236741;28;20040;-79
2023/10/08 06:49:55;;;;;;;14.60;7.17;;;;;;;16.09;100.00;102338.69;5212924;28;20033;-78
2023/10/08 06:52:28;;;;;;;13.93;6.73;;;;;;;15.99;100.00;102324.31;5230558;28;20065;-78
2023/10/08 06:55:02;;;;;;;14.73;6.27;;;;;;;16.08;100.00;102329.06;5229021;28;20016;-78
2023/10/08 06:57:33;;;;;;;13.95;7.55;;;;;;;16.15;100.00;102326.91;5224199;28;20024;-78
2023/10/08 07:00:32;;;;;;;13.73;7.13;;;;;;;15.91;100.00;102340.59;5209171;28;20026;-78
2023/10/08 07:03:03;;;;;;;14.23;6.33;;;;;;;16.00;100.00;102352.47;5227568;28;20465;-78
2023/10/08 07:05:36;;;;;;;15.73;7.60;;;;;;;16.28;100.00;102369.31;5237980;28;20044;-77
2023/10/08 07:08:08;;;;;;;13.23;6.63;;;;;;;15.99;100.00;102357.81;5237484;28;20025;-78
2023/10/08 07:10:43;;;;;;;13.87;6.50;;;;;;;16.33;100.00;102364.59;5236414;28;20044;-78
2023/10/08 07:13:17;;;;;;;18.27;7.53;;;;;;;16.19;100.00;102357.50;5230263;28;20048;-78
2023/10/08 07:15:50;;;;;;;12.65;6.97;;;;;;;16.06;100.00;102359.16;5230091;28;20029;-78
2023/10/08 07:18:25;;;;;;;16.70;8.43;;;;;;;16.20;100.00;102379.47;5229669;28;20087;-78
2023/10/08 07:21:00;;;;;;;13.63;7.13;;;;;;;16.20;100.00;102358.31;5230320;28;20112;-78
2023/10/08 07:26:26;;;;;;;12.47;7.53;;;;;;;16.32;100.00;102357.59;5230721;28;20034;-79
2023/10/08 07:28:58;;;;;;;14.03;8.13;;;;;;;16.33;100.00;102379.59;5220439;28;20060;-78
2023/10/08 07:31:29;;;;;;;17.97;8.53;;;;;;;16.35;100.00;102367.16;5230189;28;20091;-78
2023/10/08 07:34:17;;;;;;;19.37;8.07;;;;;;;16.49;100.00;102368.97;5230388;28;20029;-78
2023/10/08 07:36:50;;;;;;;17.20;7.87;;;;;;;16.57;100.00;102373.75;5229969;28;20025;-78
2023/10/08 07:41:58;;;;;;;16.07;7.77;;;;;;;17.05;100.00;102396.44;5230501;28;20129;-78
2023/10/08 07:44:30;;;;;;;15.43;8.47;;;;;;;17.01;100.00;102381.69;5212836;28;20018;-78
2023/10/08 07:47:04;;;;;;;18.10;9.27;;;;;;;17.12;100.00;102376.56;5229515;28;20079;-78
2023/10/08 07:49:36;;;;;;;18.90;7.37;;;;;;;17.31;100.00;102385.16;5230335;28;20034;-78
2023/10/08 07:52:08;;;;;;;16.33;7.77;;;;;;;17.20;100.00;102352.28;5229627;28;20083;-78
2023/10/08 07:54:39;;;;;;;17.73;7.20;;;;;;;17.59;100.00;102389.53;5212192;28;20473;-78
2023/10/08 07:57:26;;;;;;;17.23;7.67;;;;;;;17.53;100.00;102374.88;5212355;28;20025;-79
2023/10/08 08:00:18;;;;;;;17.13;8.63;;;;;;;17.43;100.00;102373.78;5233436;28;20167;-79
2023/10/08 08:02:49;;;;;;;18.60;8.50;;;;;;;17.75;100.00;102397.28;5233474;28;20049;-78
2023/10/08 08:05:21;;;;;;;18.67;8.17;;;;;;;17.47;100.00;102382.38;5216060;28;20033;-78
2023/10/08 08:07:56;;;;;;;17.67;9.67;;;;;;;17.68;100.00;102403.09;5233545;28;20025;-78
2023/10/08 08:10:29;;;;;;;17.40;8.80;;;;;;;17.78;100.00;102398.91;5214942;28;20029;-78
2023/10/08 08:13:00;;;;;;;16.23;8.40;;;;;;;17.71;100.00;102402.91;5233312;28;20653;-78
2023/10/08 08:15:39;;;;;;;14.57;8.37;;;;;;;17.73;100.00;102411.59;5216850;28;20083;-78
2023/10/08 08:18:22;;;;;;;18.97;9.97;;;;;;;17.73;100.00;102411.59;5233209;28;20599;-78
2023/10/08 08:20:54;;;;;;;17.83;9.23;;;;;;;17.87;100.00;102419.47;5240158;28;20029;-78
2023/10/08 08:23:25;;;;;;;19.83;8.63;;;;;;;17.81;100.00;102409.28;5233084;28;20541;-79
2023/10/08 08:26:11;;;;;;;21.77;10.40;;;;;;;17.88;100.00;102431.78;5233515;28;20029;-78
2023/10/08 08:28:46;;;;;;;15.07;8.97;;;;;;;18.07;100.00;102445.59;5215612;28;20493;-79
2023/10/08 08:31:19;;;;;;;21.37;9.70;;;;;;;18.01;100.00;102454.84;5233378;28;20480;-79
2023/10/08 08:33:56;;;;;;;18.97;9.90;;;;;;;17.89;100.00;102437.94;5233589;28;20052;-79
2023/10/08 08:36:31;;;;;;;16.77;9.00;;;;;;;17.80;100.00;102427.94;5233363;28;20282;-79
2023/10/08 08:39:04;;;;;;;18.33;9.63;;;;;;;17.77;100.00;102437.78;5232273;28;20068;-78
2023/10/08 08:41:39;;;;;;;22.43;9.97;;;;;;;17.95;100.00;102468.47;5233372;28;20045;-79
2023/10/08 08:44:10;;;;;;;20.20;10.57;;;;;;;17.82;100.00;102468.44;5233256;28;20051;-79
2023/10/08 08:46:43;;;;;;;17.63;10.97;;;;;;;17.73;100.00;102476.03;5232977;28;20029;-80
2023/10/08 08:49:14;;;;;;;24.97;11.30;;;;;;;17.82;100.00;102453.38;5214801;28;20048;-80
2023/10/08 08:51:48;;;;;;;22.87;10.53;;;;;;;17.88;100.00;102463.59;5232422;28;20965;-80
2023/10/08 08:54:20;;;;;;;20.02;11.27;;;;;;;18.01;100.00;102454.84;5231176;28;20385;-79
2023/10/08 08:56:54;;;;;;;23.77;10.07;;;;;;;18.25;100.00;102470.09;5215148;28;20036;-79
2023/10/08 08:59:29;;;;;;;25.98;10.13;;;;;;;18.41;100.00;102440.72;5231836;28;20029;-79
2023/10/08 09:02:01;;;;;;;26.67;11.90;;;;;;;18.40;100.00;102441.66;5225102;28;20193;-79
2023/10/08 09:04:32;;;;;;;34.63;12.83;;;;;;;18.52;100.00;102445.28;5232265;28;20030;-79
2023/10/08 09:07:04;;;;;;;25.23;12.17;;;;;;;18.81;100.00;102453.03;5236263;28;20036;-79
2023/10/08 09:09:39;;;;;;;28.70;12.80;;;;;;;18.93;100.00;102477.03;5219777;28;20076;-79
2023/10/08 09:12:10;;;;;;;22.83;11.33;;;;;;;18.94;100.00;102454.81;5231729;28;20096;-79
2023/10/08 09:14:44;;;;;;;27.93;12.90;;;;;;;18.76;100.00;102449.00;5230871;28;20013;-79
2023/10/08 09:17:16;;;;;;;26.67;11.63;;;;;;;19.04;100.00;102461.16;5231850;28;20021;-79
2023/10/08 09:19:50;;;;;;;31.33;13.37;;;;;;;18.77;100.00;102478.09;5231515;28;20021;-79
2023/10/08 09:22:21;;;;;;;28.17;12.80;;;;;;;19.10;100.00;102466.06;5232656;28;20024;-79
2023/10/08 09:24:53;;;;;;;26.10;12.37;;;;;;;19.26;100.00;102470.31;5231122;28;20578;-80
2023/10/08 09:27:26;;;;;;;23.83;12.47;;;;;;;19.24;100.00;102456.28;5235107;28;20036;-79
2023/10/08 09:29:57;;;;;;;26.97;12.50;;;;;;;19.19;100.00;102461.94;5232275;28;20021;-79
2023/10/08 09:32:30;;;;;;;25.57;11.33;;;;;;;19.53;100.00;102465.78;5214090;28;20021;-78
2023/10/08 09:35:03;;;;;;;33.43;13.03;;;;;;;19.95;100.00;102460.91;5242531;28;20075;-79
2023/10/08 09:37:39;;;;;;;25.03;12.80;;;;;;;20.76;100.00;102463.78;5230891;28;20021;-79
2023/10/08 09:40:11;;;;;;;24.45;12.05;;;;;;;21.65;100.00;102478.13;5230294;28;20025;-79
2023/10/08 09:42:44;;;;;;;23.92;11.90;;;;;;;21.90;100.00;102470.81;5230970;28;20040;-78
2023/10/08 09:45:16;;;;;;;26.60;12.63;;;;;;;21.76;100.00;102478.06;5232142;28;20534;-79
2023/10/08 09:47:54;;;;;;;23.73;12.55;;;;;;;21.63;100.00;102464.06;5231879;28;20028;-79
2023/10/08 09:50:32;;;;;;;24.02;12.63;;;;;;;21.48;100.00;102452.84;5231472;28;20018;-79
2023/10/08 09:53:16;;;;;;;29.73;12.70;;;;;;;21.59;100.00;102460.81;5230119;28;20033;-79
2023/10/08 09:55:57;;;;;;;;;;;;;;;22.21;100.00;102470.91;5232251;28;20021;-79
2023/10/08 09:58:29;;;;;;;27.48;12.70;;;;;;;21.00;100.00;102457.50;5223141;28;20405;-79
2023/10/08 10:01:00;;;;;;;23.48;12.85;;;;;;;21.24;100.00;102467.19;5230789;28;20029;-79
2023/10/08 10:03:36;;;;;;;30.42;12.88;;;;;;;21.11;100.00;102448.69;5223664;28;20071;-79
2023/10/08 10:06:12;;;;;;;22.38;12.98;;;;;;;21.51;100.00;102456.13;5213464;28;20030;-79
2023/10/08 10:08:45;;;;;;;25.58;13.13;;;;;;;21.46;100.00;102441.47;5229914;28;20030;-79
2023/10/08 10:11:16;;;;;;;25.67;11.50;;;;;;;21.65;100.00;102443.47;5231412;28;20060;-78
2023/10/08 10:13:57;;;;;;;29.20;13.30;;;;;;;22.04;100.00;102450.13;5230887;28;20033;-78
2023/10/08 10:16:28;;;;;;;26.67;15.77;;;;;;;21.74;100.00;102441.88;5241110;28;20665;-78
2023/10/08 10:19:00;;;;;;;27.77;12.80;;;;;;;22.14;100.00;102443.03;5229250;28;20037;-79
2023/10/08 10:21:33;;;;;;;20.73;12.85;;;;;;;21.97;100.00;102456.00;5212205;28;20044;-77
2023/10/08 10:24:22;;;;;;;24.65;13.40;;;;;;;22.20;100.00;102463.84;5229049;28;20033;-77
2023/10/08 10:27:14;;;;;;;27.58;13.55;;;;;;;22.02;100.00;102465.41;5217508;28;20030;-76
2023/10/08 10:29:47;;;;;;;26.83;13.75;;;;;;;21.54;100.00;102462.19;5225981;28;20148;-77
2023/10/08 10:32:18;;;;;;;22.60;14.10;;;;;;;21.44;100.00;102464.72;5226553;28;20485;-77
2023/10/08 10:34:51;;;;;;;24.38;14.30;;;;;;;21.34;100.00;102432.66;5213652;28;20280;-77
2023/10/08 10:37:24;;;;;;;26.88;14.98;;;;;;;21.76;100.00;102448.75;5230375;28;20029;-77
2023/10/08 10:40:00;;;;;;;31.15;15.70;;;;;;;21.33;100.00;102444.31;5229852;28;20033;-77
2023/10/08 10:42:38;;;;;;;25.10;16.40;;;;;;;21.15;100.00;102420.84;5229447;28;20033;-77
2023/10/08 10:45:35;;;;;;;24.05;15.07;;;;;;;21.51;100.00;102455.25;5230438;28;20057;-77
2023/10/08 10:53:44;;;;;;;32.90;16.25;;;;;;;21.05;100.00;102467.81;5219104;28;20033;-80
2023/10/08 10:56:19;;;;;;;26.50;14.73;;;;;;;20.99;100.00;102462.00;5227939;28;20033;-78
2023/10/08 10:58:53;;;;;;;35.25;14.65;;;;;;;20.85;100.00;102467.53;5229496;28;20028;-78
2023/10/08 11:01:29;;;;;;;31.63;14.50;;;;;;;20.90;100.00;102454.72;5212286;28;20026;-78
2023/10/08 11:04:00;;;;;;;39.63;15.57;;;;;;;20.58;100.00;102463.41;5228777;28;20025;-78
2023/10/08 11:06:35;;;;;;;33.83;16.55;;;;;;;20.57;100.00;102459.03;5225815;28;20080;-78
2023/10/08 11:09:14;;;;;;;27.92;14.52;;;;;;;20.49;100.00;102436.53;5227011;28;20675;-78
2023/10/08 11:11:54;;;;;;;30.30;14.43;;;;;;;20.49;100.00;102449.84;5211013;28;20042;-77
2023/10/08 11:14:25;;;;;;;30.45;14.20;;;;;;;20.65;100.00;102460.16;5228829;28;20018;-77
2023/10/08 11:16:57;;;;;;;31.77;13.63;;;;;;;20.92;100.00;102466.09;5212108;28;20041;-77
2023/10/08 11:19:28;;;;;;;35.80;14.48;;;;;;;20.82;100.00;102467.78;5212434;28;20061;-77
2023/10/08 11:21:59;;;;;;;34.65;15.13;;;;;;;20.71;100.00;102456.16;5227017;28;20041;-77
2023/10/08 11:24:37;;;;;;;33.35;15.07;;;;;;;20.60;100.00;102453.47;5230866;28;20042;-78
2023/10/08 11:27:17;;;;;;;27.58;12.73;;;;;;;20.22;100.00;102461.63;5211722;28;20128;-80
2023/10/08 11:29:59;;;;;;;29.08;13.30;;;;;;;20.25;100.00;102445.44;5210935;28;20025;-80
2023/10/08 11:32:32;;;;;;;26.45;13.48;;;;;;;20.07;100.00;102456.50;5216752;28;20057;-79
2023/10/08 11:35:15;;;;;;;28.02;13.73;;;;;;;20.19;100.00;102472.53;5231042;28;20018;-79
2023/10/08 11:37:50;;;;;;;27.50;13.48;;;;;;;20.23;100.00;102450.03;5214891;28;20040;-79
2023/10/08 11:40:28;;;;;;;34.40;14.00;;;;;;;20.45;100.00;102451.06;5233247;28;20018;-79
2023/10/08 11:43:03;;;;;;;28.08;13.35;;;;;;;19.94;100.00;102426.47;5232985;28;20694;-79
2023/10/08 11:45:47;;;;;;;22.13;13.88;;;;;;;20.29;100.00;102462.00;5207670;28;20088;-79
2023/10/08 11:48:28;;;;;;;41.60;13.93;;;;;;;20.34;100.00;102443.03;5216371;28;20029;-79
2023/10/08 11:51:01;;;;;;;25.20;13.10;;;;;;;20.26;100.00;102446.28;5235613;28;20037;-79
2023/10/08 11:53:36;;;;;;;23.33;12.10;;;;;;;20.27;100.00;102442.66;5227494;28;20030;-79
2023/10/08 11:56:12;;;;;;;22.27;13.17;;;;;;;20.21;100.00;102419.19;5231808;28;20455;-79
2023/10/08 11:58:44;;;;;;;19.90;12.00;;;;;;;20.34;100.00;102419.09;5229218;28;20424;-80
2023/10/08 12:01:15;;;;;;;23.30;13.13;;;;;;;20.59;100.00;102435.81;5228349;28;20038;-80
2023/10/08 12:03:51;;;;;;;20.90;12.40;;;;;;;20.66;100.00;102423.75;5232106;28;20065;-80
2023/10/08 12:06:24;;;;;;;21.70;12.23;;;;;;;20.78;100.00;102425.44;5207989;28;20070;-77
2023/10/08 12:08:58;;;;;;;22.83;12.88;;;;;;;20.63;100.00;102419.47;5225521;28;20037;-76
2023/10/08 12:11:33;;;;;;;20.02;12.93;;;;;;;20.73;100.00;102437.41;5232691;28;20088;-76
2023/10/08 12:14:04;;;;;;;18.77;11.45;;;;;;;20.63;100.00;102426.66;5225311;28;20116;-77
2023/10/08 12:16:36;;;;;;;24.20;12.38;;;;;;;20.63;100.00;102416.00;5231965;28;20033;-76
2023/10/08 12:19:16;;;;;;;25.25;11.65;;;;;;;20.70;100.00;102417.19;5232026;28;20036;-76
2023/10/08 12:21:48;;;;;;;21.05;11.45;;;;;;;20.46;100.00;102419.94;5232281;28;20931;-76
2023/10/08 12:24:19;;;;;;;16.95;11.85;;;;;;;20.47;100.00;102417.19;5212660;28;20030;-76
2023/10/08 12:26:53;;;;;;;17.70;12.13;;;;;;;20.28;100.00;102431.91;5218892;28;20648;-76
2023/10/08 12:29:26;;;;;;;20.77;13.05;;;;;;;20.37;100.00;102429.53;5210454;28;20037;-76
2023/10/08 12:31:59;;;;;;;25.00;13.15;;;;;;;20.20;100.00;102413.03;5228132;28;20369;-77
2023/10/08 12:34:35;;;;;;;24.83;12.27;;;;;;;20.41;100.00;102423.84;5225175;28;20022;-77
2023/10/08 12:37:07;;;;;;;23.90;12.27;;;;;;;20.48;100.00;102420.69;5231550;28;20030;-76